Time;durP1;ratioP1;P1;durP2;ratioP2;P2;SDS_P1;SDS_P2;PMS_P1;PMS_P2;Temp;Humidity;BMP_temperature;BMP_pressure;BME280_temperature;BME280_humidity;BME280_pressure;Samples;Min_cycle;Max_cycle;Signal;HPM_P1;HPM_P2
2022/08/08 00:01:15;;;;;;;4.68;2.15;;;23.50;58.70;;;;;;5079393;28;20059;-73
2022/08/08 00:04:03;;;;;;;2.90;1.73;;;23.50;58.70;;;;;;5092265;28;20024;-73
2022/08/08 00:06:40;;;;;;;5.50;1.80;;;23.60;57.70;;;;;;5088271;28;20024;-73
2022/08/08 00:09:30;;;;;;;3.72;2.00;;;23.60;58.80;;;;;;5097758;28;20052;-72
2022/08/08 00:12:19;;;;;;;4.78;1.88;;;23.60;59.00;;;;;;5093590;28;20031;-72
2022/08/08 00:14:56;;;;;;;3.70;2.17;;;23.60;58.30;;;;;;5093343;28;20051;-72
2022/08/08 00:17:51;;;;;;;5.80;2.30;;;23.60;58.80;;;;;;5091334;28;20087;-72
2022/08/08 00:20:25;;;;;;;2.83;1.55;;;23.60;58.40;;;;;;5084103;28;20176;-73
2022/08/08 00:22:58;;;;;;;27.98;2.08;;;23.60;58.40;;;;;;5085973;28;20024;-73
2022/08/08 00:25:29;;;;;;;4.93;1.73;;;23.70;58.10;;;;;;5091138;28;20024;-73
2022/08/08 00:27:59;;;;;;;3.30;2.00;;;23.80;58.20;;;;;;5082520;28;20055;-73
2022/08/08 00:30:31;;;;;;;4.03;2.20;;;23.80;58.30;;;;;;5079756;28;20024;-72
2022/08/08 00:33:11;;;;;;;7.20;2.60;;;23.90;58.50;;;;;;5080969;28;20099;-73
2022/08/08 00:35:49;;;;;;;4.43;2.30;;;23.80;59.10;;;;;;5098031;28;20016;-73
2022/08/08 00:38:39;;;;;;;2.70;1.80;;;23.70;59.40;;;;;;5095182;28;20031;-72
2022/08/08 00:41:24;;;;;;;;;;;23.60;59.10;;;;;;5095236;28;20046;-73
2022/08/08 00:44:17;;;;;;;3.92;1.77;;;23.60;59.80;;;;;;5084808;28;20382;-73
2022/08/08 00:46:58;;;;;;;7.28;3.30;;;23.50;60.50;;;;;;5097058;28;20016;-73
2022/08/08 00:50:02;;;;;;;4.28;2.95;;;23.30;62.10;;;;;;5089099;28;20361;-73
2022/08/08 00:52:58;;;;;;;3.28;2.25;;;23.00;63.40;;;;;;5084159;28;20481;-74
2022/08/08 00:56:01;;;;;;;5.43;3.28;;;22.90;63.60;;;;;;5096978;28;20023;-73
2022/08/08 00:58:33;;;;;;;5.50;1.90;;;22.90;63.40;;;;;;5092758;28;20032;-73
2022/08/08 01:01:21;;;;;;;5.45;2.13;;;23.00;62.40;;;;;;5081839;28;20028;-73
2022/08/08 01:04:24;;;;;;;7.82;1.92;;;22.90;63.40;;;;;;5092658;28;20024;-73
2022/08/08 01:07:09;;;;;;;3.33;1.90;;;23.00;62.80;;;;;;5079491;28;20427;-73
2022/08/08 01:10:02;;;;;;;3.80;2.25;;;22.90;63.00;;;;;;5096241;28;20507;-72
2022/08/08 01:12:54;;;;;;;2.80;1.98;;;22.80;63.80;;;;;;5097130;28;20020;-73
2022/08/08 01:15:48;;;;;;;5.07;2.17;;;22.80;64.30;;;;;;5088035;28;20017;-72
2022/08/08 01:18:34;;;;;;;5.38;2.35;;;22.70;64.70;;;;;;5080487;28;20577;-72
2022/08/08 01:21:43;;;;;;;4.90;2.40;;;22.70;65.30;;;;;;5088312;28;20040;-72
2022/08/08 01:24:40;;;;;;;5.65;2.13;;;22.70;66.20;;;;;;5088726;28;20023;-72
2022/08/08 01:27:15;;;;;;;4.00;2.05;;;22.60;66.50;;;;;;5063901;28;20511;-72
2022/08/08 01:29:50;;;;;;;3.13;1.95;;;22.60;67.30;;;;;;5092185;28;20024;-72
2022/08/08 01:32:28;;;;;;;3.97;2.22;;;22.60;67.90;;;;;;5086613;28;20040;-72
2022/08/08 01:34:54;;;;;;;3.55;2.00;;;22.60;68.60;;;;;;5096277;28;20023;-72
2022/08/08 01:38:11;;;;;;;6.03;2.50;;;22.60;69.00;;;;;;5096533;28;20384;-73
2022/08/08 01:41:01;;;;;;;3.53;2.42;;;22.60;69.60;;;;;;5079578;28;20430;-73
2022/08/08 01:43:54;;;;;;;3.28;2.00;;;22.60;70.20;;;;;;5094165;28;20020;-73
2022/08/08 01:46:39;;;;;;;5.72;2.10;;;22.60;70.70;;;;;;5088887;28;20151;-73
2022/08/08 01:49:24;;;;;;;4.38;1.92;;;22.70;71.30;;;;;;5081957;28;20032;-73
2022/08/08 01:51:57;;;;;;;3.13;1.90;;;22.70;71.90;;;;;;5096266;28;20012;-73
2022/08/08 01:54:46;;;;;;;4.40;2.08;;;22.70;72.50;;;;;;5091878;28;20454;-75
2022/08/08 01:57:20;;;;;;;5.93;2.38;;;22.60;73.30;;;;;;5094901;28;20020;-73
2022/08/08 02:00:13;;;;;;;3.55;2.33;;;22.50;73.90;;;;;;5088434;28;20045;-73
2022/08/08 02:03:06;;;;;;;3.25;2.22;;;22.50;74.70;;;;;;5080120;28;20021;-73
2022/08/08 02:05:35;;;;;;;2.80;2.25;;;22.50;75.50;;;;;;5080983;28;20020;-74
2022/08/08 02:08:20;;;;;;;6.55;2.22;;;22.40;76.10;;;;;;5085578;28;20036;-74
2022/08/08 02:10:53;;;;;;;9.98;2.50;;;22.40;76.90;;;;;;5092429;28;20028;-75
2022/08/08 02:13:30;;;;;;;3.90;2.72;;;22.30;77.60;;;;;;5096336;28;20016;-75
2022/08/08 02:16:17;;;;;;;8.98;2.42;;;22.30;78.50;;;;;;5085579;28;20051;-75
2022/08/08 02:19:08;;;;;;;3.88;2.80;;;22.20;79.30;;;;;;5091063;28;20090;-75
2022/08/08 02:25:03;;;;;;;5.05;2.58;;;22.00;81.10;;;;;;5083800;28;20074;-75
2022/08/08 02:27:46;;;;;;;6.25;2.45;;;22.00;82.20;;;;;;5088589;28;20030;-73
2022/08/08 02:30:45;;;;;;;9.05;3.22;;;21.90;83.00;;;;;;5078316;28;20388;-73
2022/08/08 02:33:11;;;;;;;3.65;2.50;;;21.80;83.70;;;;;;5075487;28;20032;-73
2022/08/08 02:35:40;;;;;;;3.80;2.53;;;21.80;84.60;;;;;;5086853;28;20016;-73
2022/08/08 02:38:21;;;;;;;4.57;2.15;;;21.80;84.90;;;;;;5093771;28;20093;-73
2022/08/08 02:41:22;;;;;;;3.30;2.30;;;21.70;85.60;;;;;;5095644;28;20381;-73
2022/08/08 02:44:00;;;;;;;8.93;2.78;;;21.70;86.10;;;;;;5077003;28;20389;-73
2022/08/08 02:46:55;;;;;;;4.20;2.47;;;21.70;86.50;;;;;;5090893;28;20052;-72
2022/08/08 02:49:49;;;;;;;6.38;2.55;;;21.60;86.90;;;;;;5087502;28;20047;-72
2022/08/08 02:52:40;;;;;;;4.78;2.67;;;21.60;87.70;;;;;;5095747;28;20016;-72
2022/08/08 02:55:39;;;;;;;3.30;2.53;;;21.60;87.90;;;;;;5095284;28;20044;-72
2022/08/08 02:58:23;;;;;;;5.18;2.80;;;21.60;89.00;;;;;;5095579;28;20048;-73
2022/08/08 03:01:27;;;;;;;5.43;2.70;;;21.50;89.40;;;;;;5087974;28;20031;-72
2022/08/08 03:04:13;;;;;;;6.03;2.85;;;21.50;90.20;;;;;;5046619;28;20208;-72
2022/08/08 03:07:05;;;;;;;3.83;2.92;;;21.50;90.40;;;;;;5036493;28;20706;-72
2022/08/08 03:09:52;;;;;;;4.82;2.45;;;21.40;90.70;;;;;;5080269;28;20097;-72
2022/08/08 03:12:40;;;;;;;12.23;2.70;;;21.40;91.00;;;;;;5084229;28;20395;-73
2022/08/08 03:15:35;;;;;;;4.60;2.72;;;21.30;91.30;;;;;;5081094;28;20024;-73
2022/08/08 03:18:28;;;;;;;4.95;2.83;;;21.30;91.60;;;;;;5094186;28;20020;-73
2022/08/08 03:20:53;;;;;;;5.90;2.90;;;21.20;91.90;;;;;;5081588;28;20059;-72
2022/08/08 03:23:21;;;;;;;4.45;3.17;;;21.20;92.20;;;;;;5082717;28;20016;-72
2022/08/08 03:25:48;;;;;;;4.65;2.63;;;21.10;92.60;;;;;;5080902;28;20021;-72
2022/08/08 03:28:26;;;;;;;7.60;2.85;;;21.10;92.60;;;;;;5094679;28;20093;-73
2022/08/08 03:30:52;;;;;;;6.93;2.67;;;21.00;92.90;;;;;;5098763;28;20028;-72
2022/08/08 03:33:18;;;;;;;6.97;3.10;;;20.90;93.50;;;;;;5096724;28;20484;-72
2022/08/08 03:35:46;;;;;;;7.90;3.10;;;20.80;93.70;;;;;;5100260;28;20035;-72
2022/08/08 03:38:13;;;;;;;7.47;3.17;;;20.80;93.80;;;;;;5090026;28;20056;-72
2022/08/08 03:40:39;;;;;;;3.70;2.28;;;20.70;94.20;;;;;;5100150;28;20027;-72
2022/08/08 03:43:12;;;;;;;9.88;3.13;;;20.70;94.40;;;;;;5095047;28;20384;-72
2022/08/08 03:45:37;;;;;;;3.00;2.45;;;20.70;94.50;;;;;;5097449;28;20024;-72
2022/08/08 03:48:06;;;;;;;5.88;2.95;;;20.70;94.70;;;;;;5098466;28;20023;-72
2022/08/08 03:50:34;;;;;;;5.18;3.00;;;20.70;94.80;;;;;;5098362;28;20024;-72
2022/08/08 03:53:15;;;;;;;6.50;3.40;;;20.70;94.90;;;;;;5092670;28;20045;-73
2022/08/08 03:55:48;;;;;;;7.65;2.85;;;20.70;95.20;;;;;;5084144;28;20515;-73
2022/08/08 03:58:19;;;;;;;5.95;3.25;;;20.60;95.40;;;;;;5081134;28;20447;-73
2022/08/08 04:00:56;;;;;;;5.68;2.75;;;20.60;95.60;;;;;;5095859;28;20012;-73
2022/08/08 04:03:22;;;;;;;4.93;2.90;;;20.60;95.70;;;;;;5098469;28;20087;-73
2022/08/08 04:05:49;;;;;;;7.40;3.22;;;20.50;96.00;;;;;;5097158;28;20020;-72
2022/08/08 04:08:20;;;;;;;6.43;3.42;;;20.50;96.10;;;;;;5097349;28;20016;-72
2022/08/08 04:10:48;;;;;;;12.98;3.00;;;20.40;96.20;;;;;;5094807;28;20023;-73
2022/08/08 04:13:14;;;;;;;9.70;3.17;;;20.40;96.70;;;;;;5094280;28;20102;-72
2022/08/08 04:15:40;;;;;;;5.20;2.78;;;20.40;97.00;;;;;;5091682;28;20055;-73
2022/08/08 04:18:06;;;;;;;8.85;3.85;;;20.30;96.90;;;;;;5097151;28;20050;-72
2022/08/08 04:20:32;;;;;;;9.98;3.15;;;20.30;97.40;;;;;;5098285;28;20407;-72
2022/08/08 04:22:58;;;;;;;6.78;3.35;;;20.20;97.70;;;;;;5097374;28;20028;-73
2022/08/08 04:25:24;;;;;;;5.55;3.40;;;20.20;97.80;;;;;;5081982;28;20020;-72
2022/08/08 04:27:50;;;;;;;11.00;3.40;;;20.20;98.10;;;;;;5093131;28;20058;-73
2022/08/08 04:30:16;;;;;;;3.95;2.78;;;20.10;98.30;;;;;;5079334;28;20024;-72
2022/08/08 04:32:41;;;;;;;4.28;3.10;;;20.10;98.50;;;;;;5079373;28;20020;-72
2022/08/08 04:35:07;;;;;;;6.88;2.83;;;20.00;99.00;;;;;;5096943;28;20027;-73
2022/08/08 04:37:33;;;;;;;6.03;3.30;;;20.00;99.00;;;;;;5099059;28;20031;-72
2022/08/08 04:40:00;;;;;;;6.03;3.22;;;19.90;99.40;;;;;;5093178;28;20087;-72
2022/08/08 04:42:29;;;;;;;5.95;3.55;;;19.90;99.60;;;;;;5097611;28;20024;-72
2022/08/08 04:44:56;;;;;;;5.82;3.50;;;19.80;99.90;;;;;;5089668;28;20024;-72
2022/08/08 04:47:22;;;;;;;9.88;3.80;;;19.80;99.90;;;;;;5092255;28;20044;-72
2022/08/08 04:49:48;;;;;;;7.97;4.10;;;19.80;99.90;;;;;;5091671;28;20035;-72
2022/08/08 04:52:14;;;;;;;6.78;3.65;;;19.80;99.90;;;;;;5091189;28;20023;-72
2022/08/08 04:54:40;;;;;;;4.00;3.45;;;19.80;99.90;;;;;;5083584;28;20056;-73
2022/08/08 04:57:05;;;;;;;6.20;3.38;;;19.80;99.90;;;;;;5086973;28;20024;-72
2022/08/08 04:59:31;;;;;;;8.65;3.60;;;19.80;99.90;;;;;;5080453;28;20027;-72
2022/08/08 05:01:57;;;;;;;6.47;3.45;;;19.80;99.90;;;;;;5092984;28;20074;-72
2022/08/08 05:04:23;;;;;;;8.48;3.25;;;19.80;99.90;;;;;;5085386;28;20070;-72
2022/08/08 05:06:49;;;;;;;7.30;3.22;;;19.80;99.90;;;;;;5083566;28;20388;-72
2022/08/08 05:09:15;;;;;;;9.93;3.20;;;19.80;99.90;;;;;;5094380;28;20081;-72
2022/08/08 05:11:41;;;;;;;6.95;3.28;;;19.80;99.90;;;;;;5096847;28;20468;-72
2022/08/08 05:14:10;;;;;;;5.40;3.33;;;19.80;99.90;;;;;;5085998;28;20477;-72
2022/08/08 05:16:36;;;;;;;7.50;3.47;;;19.90;99.90;;;;;;5090757;28;20028;-72
2022/08/08 05:19:01;;;;;;;8.60;3.35;;;20.00;99.90;;;;;;5089617;28;20388;-72
2022/08/08 05:21:27;;;;;;;6.53;3.17;;;20.00;99.90;;;;;;5096070;28;20500;-72
2022/08/08 05:23:53;;;;;;;4.60;3.30;;;20.10;99.90;;;;;;5081777;28;20031;-72
2022/08/08 05:26:23;;;;;;;9.65;3.38;;;20.10;99.90;;;;;;5093182;28;20077;-73
2022/08/08 05:28:49;;;;;;;4.30;3.20;;;20.20;99.90;;;;;;5086080;28;20020;-72
2022/08/08 05:31:15;;;;;;;7.72;3.47;;;20.20;99.90;;;;;;5082323;28;20622;-73
2022/08/08 05:33:41;;;;;;;11.13;3.45;;;20.30;99.90;;;;;;5084322;28;20027;-72
2022/08/08 05:36:10;;;;;;;8.07;3.70;;;20.40;99.90;;;;;;5096829;28;20099;-73
2022/08/08 05:38:46;;;;;;;6.13;3.13;;;20.40;99.90;;;;;;5094355;28;20081;-72
2022/08/08 05:41:16;;;;;;;7.82;3.25;;;20.50;99.90;;;;;;5097513;28;20043;-72
2022/08/08 05:43:46;;;;;;;6.47;3.92;;;20.60;99.90;;;;;;5096603;28;20024;-72
2022/08/08 05:46:13;;;;;;;4.73;3.10;;;20.60;99.90;;;;;;5095199;28;20027;-72
2022/08/08 05:48:39;;;;;;;3.50;2.88;;;20.70;99.90;;;;;;5097730;28;20042;-72
2022/08/08 05:51:05;;;;;;;7.43;3.30;;;20.70;99.90;;;;;;5083937;28;20032;-73
2022/08/08 05:53:31;;;;;;;5.93;3.25;;;20.80;99.90;;;;;;5089061;28;20510;-72
2022/08/08 05:55:59;;;;;;;6.10;3.30;;;20.80;99.90;;;;;;5096014;28;20024;-73
2022/08/08 05:58:30;;;;;;;4.55;3.20;;;20.80;99.90;;;;;;5085696;28;20104;-73
2022/08/08 06:00:59;;;;;;;6.90;3.00;;;20.90;99.90;;;;;;5081702;28;20024;-73
2022/08/08 06:03:26;;;;;;;7.00;2.55;;;21.00;99.90;;;;;;5096232;28;20058;-74
2022/08/08 06:06:05;;;;;;;4.53;2.90;;;21.10;99.90;;;;;;5092952;28;20051;-73
2022/08/08 06:08:34;;;;;;;4.85;2.83;;;21.10;99.80;;;;;;5095120;28;20077;-73
2022/08/08 06:11:01;;;;;;;5.32;2.88;;;21.20;99.70;;;;;;5089546;28;20061;-73
2022/08/08 06:13:28;;;;;;;3.85;2.90;;;21.30;99.60;;;;;;5091559;28;20032;-73
2022/08/08 06:15:54;;;;;;;9.82;3.20;;;21.30;99.50;;;;;;5088247;28;20036;-73
2022/08/08 06:18:24;;;;;;;8.07;3.42;;;21.40;99.40;;;;;;5083897;28;20027;-72
2022/08/08 06:20:57;;;;;;;5.95;3.10;;;21.50;99.30;;;;;;5093170;28;20481;-73
2022/08/08 06:23:24;;;;;;;8.18;3.10;;;21.60;99.10;;;;;;5096935;28;20028;-72
2022/08/08 06:26:03;;;;;;;6.68;3.00;;;21.60;98.90;;;;;;5091383;28;20408;-75
2022/08/08 06:28:38;;;;;;;9.80;2.95;;;21.70;98.80;;;;;;5081017;28;20031;-76
2022/08/08 06:31:07;;;;;;;6.70;2.70;;;21.70;98.70;;;;;;5082838;28;20016;-74
2022/08/08 06:33:49;;;;;;;18.00;4.18;;;21.70;98.60;;;;;;5083712;28;20028;-75
2022/08/08 06:36:39;;;;;;;7.03;2.90;;;21.80;98.50;;;;;;5089491;28;20031;-74
2022/08/08 06:39:08;;;;;;;8.15;3.20;;;21.80;98.30;;;;;;5083340;28;20032;-74
2022/08/08 06:41:41;;;;;;;7.07;2.60;;;21.90;98.40;;;;;;5091240;28;20024;-76
2022/08/08 06:44:10;;;;;;;6.95;3.22;;;22.00;98.10;;;;;;5082738;28;20070;-77
2022/08/08 06:46:37;;;;;;;7.53;2.90;;;22.10;98.00;;;;;;5078232;28;20039;-76
2022/08/08 06:49:03;;;;;;;10.32;3.03;;;22.10;97.90;;;;;;5082055;28;20077;-74
2022/08/08 06:51:29;;;;;;;5.15;2.70;;;22.20;97.50;;;;;;5093060;28;20028;-75
2022/08/08 06:53:58;;;;;;;8.38;2.85;;;22.30;97.40;;;;;;5085407;28;20451;-74
2022/08/08 06:56:24;;;;;;;7.75;2.72;;;22.40;97.20;;;;;;5089362;28;20024;-76
2022/08/08 06:58:50;;;;;;;4.85;2.65;;;22.50;96.70;;;;;;5089624;28;20020;-73
2022/08/08 07:01:16;;;;;;;9.50;2.78;;;22.50;96.70;;;;;;5096740;28;20381;-75
2022/08/08 07:03:48;;;;;;;16.52;3.42;;;22.60;96.70;;;;;;5095226;28;20488;-76
2022/08/08 07:06:19;;;;;;;5.32;2.55;;;22.60;96.30;;;;;;5092151;28;20032;-74
2022/08/08 07:08:50;;;;;;;7.00;2.50;;;22.70;95.80;;;;;;5097863;28;20036;-74
2022/08/08 07:11:19;;;;;;;11.73;2.40;;;22.80;95.50;;;;;;5082533;28;20142;-74
2022/08/08 07:13:49;;;;;;;9.63;2.45;;;22.80;95.30;;;;;;5083522;28;20104;-74
2022/08/08 07:16:23;;;;;;;5.90;3.07;;;22.90;95.20;;;;;;5097786;28;20051;-73
2022/08/08 07:19:06;;;;;;;8.18;2.85;;;22.90;94.70;;;;;;5097928;28;20280;-73
2022/08/08 07:22:06;;;;;;;13.07;2.85;;;23.00;94.80;;;;;;5088499;28;20043;-74
2022/08/08 07:24:43;;;;;;;11.82;2.90;;;23.10;94.10;;;;;;5084729;28;20060;-73
2022/08/08 07:27:14;;;;;;;5.40;2.53;;;23.10;93.70;;;;;;5083399;28;20109;-74
2022/08/08 07:29:40;;;;;;;6.65;2.60;;;23.20;94.10;;;;;;5085724;28;20034;-75
2022/08/08 07:32:08;;;;;;;5.60;2.53;;;23.30;94.00;;;;;;5093810;28;20020;-75
2022/08/08 07:34:34;;;;;;;9.70;2.65;;;23.40;93.10;;;;;;5092085;28;20067;-73
2022/08/08 07:37:03;;;;;;;4.88;2.60;;;23.40;93.00;;;;;;5084752;28;20423;-75
2022/08/08 07:39:30;;;;;;;7.75;2.85;;;23.50;93.10;;;;;;5092924;28;20031;-75
2022/08/08 07:41:59;;;;;;;5.05;2.35;;;23.60;92.80;;;;;;5091469;28;20020;-75
2022/08/08 07:44:27;;;;;;;8.70;2.38;;;23.60;92.60;;;;;;5087463;28;20117;-76
2022/08/08 07:46:53;;;;;;;4.55;2.42;;;23.70;92.40;;;;;;5087529;28;20021;-73
2022/08/08 07:49:20;;;;;;;8.02;2.58;;;23.80;92.20;;;;;;5097329;28;20036;-75
2022/08/08 07:51:46;;;;;;;5.90;2.55;;;23.90;92.60;;;;;;5087967;28;20024;-74
2022/08/08 07:54:20;;;;;;;5.45;2.88;;;24.10;92.40;;;;;;5085736;28;20060;-74
2022/08/08 07:57:15;;;;;;;7.28;2.38;;;24.10;91.20;;;;;;5083416;28;20029;-75
2022/08/08 07:59:59;;;;;;;9.90;2.65;;;24.20;91.10;;;;;;5093213;28;20036;-74
2022/08/08 08:02:35;;;;;;;9.65;2.53;;;24.30;90.80;;;;;;5099603;28;20028;-75
2022/08/08 08:05:04;;;;;;;5.45;2.17;;;24.40;90.40;;;;;;5098293;28;20028;-73
2022/08/08 08:07:33;;;;;;;5.80;2.65;;;24.50;89.90;;;;;;5083795;28;20023;-74
2022/08/08 08:10:03;;;;;;;3.47;2.33;;;24.50;88.90;;;;;;5095920;28;20032;-74
2022/08/08 08:12:29;;;;;;;3.60;2.17;;;24.60;89.50;;;;;;5083929;28;20020;-73
2022/08/08 08:15:03;;;;;;;9.73;2.97;;;24.70;89.30;;;;;;5078192;28;20020;-74
2022/08/08 08:17:29;;;;;;;8.30;2.20;;;24.80;89.90;;;;;;5085071;28;20024;-75
2022/08/08 08:19:59;;;;;;;8.98;2.55;;;24.90;90.00;;;;;;5083714;28;20088;-76
2022/08/08 08:22:24;;;;;;;12.77;2.72;;;25.00;89.10;;;;;;5091405;28;20028;-75
2022/08/08 08:24:50;;;;;;;10.27;2.50;;;25.10;88.30;;;;;;5089568;28;20020;-75
2022/08/08 08:27:18;;;;;;;6.20;2.60;;;25.20;87.30;;;;;;5090643;28;20032;-73
2022/08/08 08:29:44;;;;;;;4.82;2.17;;;25.20;86.70;;;;;;5082371;28;20021;-74
2022/08/08 08:32:10;;;;;;;6.30;2.30;;;25.30;85.60;;;;;;5098249;28;20078;-74
2022/08/08 08:34:36;;;;;;;3.72;1.88;;;25.40;84.60;;;;;;5097643;28;20024;-73
2022/08/08 08:37:02;;;;;;;8.35;2.38;;;25.50;83.40;;;;;;5089961;28;20024;-73
2022/08/08 08:39:28;;;;;;;9.25;3.35;;;25.70;83.10;;;;;;5082471;28;20057;-73
2022/08/08 08:41:56;;;;;;;7.60;2.45;;;25.80;82.70;;;;;;5094781;28;20024;-73
2022/08/08 08:44:24;;;;;;;2.25;1.70;;;25.90;81.20;;;;;;5095501;28;20027;-72
2022/08/08 08:46:51;;;;;;;3.35;1.60;;;26.10;79.20;;;;;;5091496;28;20033;-72
2022/08/08 08:49:17;;;;;;;8.15;2.10;;;26.10;76.10;;;;;;5097593;28;20024;-73
2022/08/08 08:51:45;;;;;;;5.03;2.03;;;26.20;76.90;;;;;;5097050;28;20511;-73
2022/08/08 08:54:13;;;;;;;3.78;2.20;;;26.20;76.30;;;;;;5092512;28;20051;-73
2022/08/08 08:56:39;;;;;;;3.95;1.70;;;26.30;75.30;;;;;;5086714;28;20099;-74
2022/08/08 08:59:07;;;;;;;5.32;2.10;;;26.50;75.00;;;;;;5088680;28;20093;-73
2022/08/08 09:01:37;;;;;;;10.48;2.08;;;26.50;74.50;;;;;;5093885;28;20472;-72
2022/08/08 09:04:09;;;;;;;10.80;2.03;;;26.70;74.40;;;;;;5087433;28;20029;-73
2022/08/08 09:06:42;;;;;;;6.95;2.40;;;26.70;74.20;;;;;;5086103;28;20073;-73
2022/08/08 09:09:28;;;;;;;8.80;2.35;;;26.80;74.50;;;;;;5082934;28;20032;-73
2022/08/08 09:11:55;;;;;;;6.95;2.00;;;26.90;73.00;;;;;;5083354;28;20111;-73
2022/08/08 09:14:23;;;;;;;7.65;2.00;;;27.00;72.70;;;;;;5088158;28;20020;-72
2022/08/08 09:16:50;;;;;;;7.07;2.20;;;27.00;72.50;;;;;;5082412;28;20115;-73
2022/08/08 09:19:17;;;;;;;13.00;1.80;;;27.10;73.30;;;;;;5085725;28;20028;-73
2022/08/08 09:21:44;;;;;;;7.47;2.28;;;27.20;72.20;;;;;;5094724;28;20373;-72
2022/08/08 09:24:10;;;;;;;5.03;1.90;;;27.40;71.50;;;;;;5094847;28;20024;-75
2022/08/08 09:26:39;;;;;;;8.32;1.65;;;27.40;70.60;;;;;;5091136;28;20389;-74
2022/08/08 09:29:06;;;;;;;9.18;1.73;;;27.60;71.40;;;;;;5086620;28;20047;-73
2022/08/08 09:32:01;;;;;;;8.60;1.77;;;27.60;69.80;;;;;;5088605;28;20480;-76
2022/08/08 09:34:32;;;;;;;3.75;1.80;;;27.80;69.10;;;;;;5073869;28;20041;-73
2022/08/08 09:37:04;;;;;;;3.60;1.83;;;27.80;66.10;;;;;;5085037;28;20044;-76
2022/08/08 09:39:45;;;;;;;9.35;2.60;;;27.90;67.30;;;;;;5093395;28;20028;-76
2022/08/08 09:42:15;;;;;;;6.00;1.80;;;28.00;67.30;;;;;;5084219;28;20015;-75
2022/08/08 09:44:59;;;;;;;6.00;1.90;;;28.00;67.10;;;;;;5086885;28;20035;-75
2022/08/08 09:47:27;;;;;;;5.55;1.90;;;28.20;67.70;;;;;;5084800;28;20028;-77
2022/08/08 09:49:57;;;;;;;5.13;2.15;;;28.20;66.50;;;;;;5097005;28;20024;-76
2022/08/08 09:52:28;;;;;;;4.82;1.77;;;28.10;65.70;;;;;;5094003;28;20417;-77
2022/08/08 09:54:53;;;;;;;7.82;2.00;;;28.10;65.10;;;;;;5094627;28;20036;-76
2022/08/08 09:57:29;;;;;;;3.03;1.85;;;28.20;65.10;;;;;;5091617;28;20050;-77
2022/08/08 09:59:58;;;;;;;3.35;1.58;;;28.30;66.00;;;;;;5082982;28;20099;-77
2022/08/08 10:02:35;;;;;;;7.53;1.80;;;28.40;65.30;;;;;;5087913;28;20020;-76
2022/08/08 10:05:23;;;;;;;4.97;2.10;;;28.50;64.50;;;;;;5095452;28;20445;-74
2022/08/08 10:07:51;;;;;;;3.38;1.50;;;28.70;62.40;;;;;;5088539;28;20158;-76
2022/08/08 10:10:24;;;;;;;2.75;1.55;;;28.70;63.00;;;;;;5086290;28;20020;-77
2022/08/08 10:12:50;;;;;;;2.47;1.52;;;28.90;63.70;;;;;;5089957;28;20028;-76
2022/08/08 10:15:16;;;;;;;9.73;2.30;;;29.00;62.60;;;;;;5090397;28;20025;-76
2022/08/08 10:17:50;;;;;;;6.03;2.00;;;29.10;63.10;;;;;;5078357;28;20025;-76
2022/08/08 10:20:16;;;;;;;5.50;2.10;;;29.20;62.70;;;;;;5092170;28;20021;-77
2022/08/08 10:22:59;;;;;;;6.28;1.77;;;29.30;61.70;;;;;;5087187;28;20031;-77
2022/08/08 10:25:26;;;;;;;4.00;1.55;;;29.60;61.50;;;;;;5075968;28;20027;-75
2022/08/08 10:27:54;;;;;;;6.25;2.10;;;29.60;61.80;;;;;;5095674;28;20366;-77
2022/08/08 10:30:24;;;;;;;6.80;1.75;;;29.70;62.10;;;;;;5096286;28;20015;-78
2022/08/08 10:32:56;;;;;;;5.03;1.75;;;29.80;61.00;;;;;;5096312;28;20051;-78
2022/08/08 10:35:27;;;;;;;8.27;1.77;;;29.90;60.60;;;;;;5096275;28;20024;-78
2022/08/08 10:38:05;;;;;;;7.78;2.00;;;30.10;62.50;;;;;;5092739;28;20020;-78
2022/08/08 10:40:31;;;;;;;10.48;2.08;;;30.30;60.50;;;;;;5079463;28;20025;-78
2022/08/08 10:43:03;;;;;;;3.35;1.88;;;30.40;58.60;;;;;;5094066;28;20024;-76
2022/08/08 10:45:29;;;;;;;6.78;1.70;;;30.30;58.20;;;;;;5085412;28;20503;-76
2022/08/08 10:47:59;;;;;;;6.25;1.35;;;30.30;57.70;;;;;;5093351;28;20384;-78
2022/08/08 10:50:37;;;;;;;3.88;1.90;;;30.40;57.90;;;;;;5095066;28;20431;-78
2022/08/08 10:53:09;;;;;;;4.00;1.70;;;30.00;55.20;;;;;;5093186;28;20510;-78
2022/08/08 10:55:39;;;;;;;6.22;2.03;;;30.00;56.60;;;;;;5092419;28;20024;-78
2022/08/08 10:58:09;;;;;;;4.53;1.77;;;30.10;57.30;;;;;;5089662;28;20050;-78
2022/08/08 11:00:42;;;;;;;3.50;1.50;;;30.30;57.50;;;;;;5095108;28;20012;-77
2022/08/08 11:03:11;;;;;;;4.13;2.03;;;30.40;55.70;;;;;;5095001;28;20038;-77
2022/08/08 11:06:05;;;;;;;5.63;1.77;;;30.50;55.70;;;;;;5094993;28;20031;-79
2022/08/08 11:08:31;;;;;;;3.22;1.55;;;30.80;56.70;;;;;;5093216;28;20422;-78
2022/08/08 11:11:05;;;;;;;6.97;2.00;;;30.80;55.90;;;;;;5089808;28;20028;-79
2022/08/08 11:13:44;;;;;;;5.68;1.65;;;30.90;54.30;;;;;;5090046;28;20028;-76
2022/08/08 11:16:21;;;;;;;3.10;1.83;;;30.70;54.20;;;;;;5089318;28;20061;-78
2022/08/08 11:18:52;;;;;;;4.30;1.73;;;30.60;56.30;;;;;;5081935;28;20399;-76
2022/08/08 11:21:18;;;;;;;4.35;1.50;;;30.70;54.40;;;;;;5085297;28;20085;-78
2022/08/08 11:23:47;;;;;;;7.00;1.92;;;30.70;56.50;;;;;;5080186;28;20023;-78
2022/08/08 11:26:19;;;;;;;5.53;1.75;;;30.90;56.80;;;;;;5085000;28;20016;-76
2022/08/08 11:28:46;;;;;;;6.93;2.10;;;31.10;55.00;;;;;;5077761;28;20021;-78
2022/08/08 11:31:16;;;;;;;4.60;1.73;;;31.10;53.50;;;;;;5077557;28;20020;-77
2022/08/08 11:33:48;;;;;;;2.72;1.58;;;30.90;52.10;;;;;;5085529;28;20392;-78
2022/08/08 11:36:15;;;;;;;4.22;1.55;;;31.10;54.30;;;;;;5087091;28;20024;-78
2022/08/08 11:38:46;;;;;;;5.15;1.85;;;31.20;53.10;;;;;;5091857;28;20031;-77
2022/08/08 11:41:13;;;;;;;3.45;1.42;;;31.30;53.80;;;;;;5093861;28;20036;-77
2022/08/08 11:43:41;;;;;;;4.65;1.65;;;31.30;53.50;;;;;;5095382;28;20024;-76
2022/08/08 11:46:08;;;;;;;2.40;1.92;;;31.40;51.40;;;;;;5094329;28;20017;-78
2022/08/08 11:48:35;;;;;;;2.80;1.63;;;31.40;53.00;;;;;;5090355;28;20098;-78
2022/08/08 11:51:01;;;;;;;3.08;1.63;;;31.40;52.00;;;;;;5096161;28;20812;-78
2022/08/08 11:53:27;;;;;;;4.05;1.33;;;31.60;53.00;;;;;;5069543;28;20064;-78
2022/08/08 11:55:53;;;;;;;3.72;1.23;;;31.80;52.90;;;;;;5087522;28;20086;-78
2022/08/08 11:58:18;;;;;;;4.65;1.70;;;31.90;52.20;;;;;;5095336;28;20020;-77
2022/08/08 12:00:50;;;;;;;7.57;1.85;;;32.00;50.20;;;;;;5087931;28;20029;-78
2022/08/08 12:03:22;;;;;;;7.97;1.63;;;32.00;50.30;;;;;;5086148;28;20032;-78
2022/08/08 12:05:50;;;;;;;3.67;1.55;;;32.00;50.50;;;;;;5093000;28;20024;-78
2022/08/08 12:08:28;;;;;;;2.47;1.33;;;32.20;51.20;;;;;;5092722;28;20035;-77
2022/08/08 12:11:00;;;;;;;7.25;1.77;;;32.20;51.00;;;;;;5092494;28;20384;-78
2022/08/08 12:13:26;;;;;;;3.38;1.38;;;32.30;49.50;;;;;;5093620;28;20023;-78
2022/08/08 12:15:52;;;;;;;4.30;1.38;;;32.40;51.50;;;;;;5098363;28;20051;-78
2022/08/08 12:18:25;;;;;;;4.63;1.85;;;32.40;49.60;;;;;;5096132;28;20020;-77
2022/08/08 12:20:53;;;;;;;5.38;1.63;;;32.30;48.80;;;;;;5095296;28;20028;-78
2022/08/08 12:23:49;;;;;;;3.75;1.42;;;32.10;48.40;;;;;;5097260;28;20020;-78
2022/08/08 12:26:19;;;;;;;3.33;1.83;;;32.10;49.30;;;;;;5082382;28;20040;-75
2022/08/08 12:28:55;;;;;;;3.97;1.55;;;32.10;48.00;;;;;;5098950;28;20392;-78
2022/08/08 12:31:35;;;;;;;6.95;2.25;;;32.00;47.90;;;;;;5096107;28;20058;-77
2022/08/08 12:34:01;;;;;;;6.65;1.98;;;32.10;48.00;;;;;;5097527;28;20055;-79
2022/08/08 12:36:41;;;;;;;3.25;1.65;;;32.00;47.60;;;;;;5098820;28;20056;-79
2022/08/08 12:39:08;;;;;;;2.95;1.75;;;32.10;48.30;;;;;;5084382;28;20024;-79
2022/08/08 12:41:35;;;;;;;2.67;1.42;;;32.20;49.00;;;;;;5085844;28;20020;-79
2022/08/08 12:44:06;;;;;;;4.93;1.52;;;32.20;47.00;;;;;;5088907;28;20031;-79
2022/08/08 12:46:32;;;;;;;4.95;1.50;;;32.40;47.10;;;;;;5090702;28;20455;-79
2022/08/08 12:49:00;;;;;;;2.42;1.40;;;32.50;48.10;;;;;;5085401;28;20020;-78
2022/08/08 12:51:37;;;;;;;3.45;1.58;;;32.60;46.30;;;;;;5090894;28;20048;-79
2022/08/08 12:54:03;;;;;;;3.05;1.35;;;32.60;46.30;;;;;;5093366;28;20048;-80
2022/08/08 12:56:39;;;;;;;6.70;1.40;;;32.60;45.10;;;;;;5078659;28;20020;-78
2022/08/08 12:59:23;;;;;;;4.22;1.45;;;32.60;46.10;;;;;;5093187;28;20056;-76
2022/08/08 13:01:54;;;;;;;3.80;1.55;;;32.70;45.60;;;;;;5085964;28;20024;-79
2022/08/08 13:04:25;;;;;;;4.40;1.63;;;32.80;46.30;;;;;;5092649;28;20020;-77
2022/08/08 13:07:08;;;;;;;2.53;1.63;;;32.90;45.40;;;;;;5096510;28;20031;-78
2022/08/08 13:09:41;;;;;;;3.38;1.60;;;33.00;44.20;;;;;;5079152;28;20446;-78
2022/08/08 13:12:25;;;;;;;4.10;1.20;;;33.00;45.30;;;;;;5096948;28;20020;-78
2022/08/08 13:14:53;;;;;;;7.53;1.35;;;33.20;46.60;;;;;;5097704;28;20369;-79
2022/08/08 13:17:27;;;;;;;3.15;1.40;;;33.20;43.30;;;;;;5096613;28;20080;-79
2022/08/08 13:19:53;;;;;;;5.90;1.75;;;33.30;45.80;;;;;;5096629;28;20112;-79
2022/08/08 13:22:20;;;;;;;2.13;1.20;;;33.50;44.50;;;;;;5087812;28;20024;-78